Time;durP1;ratioP1;P1;durP2;ratioP2;P2;SDS_P1;SDS_P2;PMS_P1;PMS_P2;Temp;Humidity;BMP_temperature;BMP_pressure;BME280_temperature;BME280_humidity;BME280_pressure;Samples;Min_cycle;Max_cycle;Signal;HPM_P1;HPM_P2
2023/05/24 00:01:44;;;;;;;;;;;;;;;20.32;66.06;100573.13;7399644;19;1855;-42
2023/05/24 00:04:13;;;;;;;;;;;;;;;20.34;66.02;100579.19;7399969;19;1869;-42
2023/05/24 00:06:43;;;;;;;;;;;;;;;20.30;65.59;100563.53;7398731;19;1557;-43
2023/05/24 00:09:14;;;;;;;;;;;;;;;20.31;66.08;100562.50;7396229;19;1406;-42
2023/05/24 00:11:42;;;;;;;;;;;;;;;20.31;66.01;100546.41;7399683;19;1367;-42
2023/05/24 00:14:11;;;;;;;;;;;;;;;20.31;65.98;100559.81;7399048;19;1458;-42
2023/05/24 00:16:39;;;;;;;;;;;;;;;20.31;66.10;100557.16;7399179;19;1745;-42
2023/05/24 00:19:09;;;;;;;;;;;;;;;20.33;65.78;100555.16;7398087;19;1828;-42
2023/05/24 00:21:38;;;;;;;;;;;;;;;20.33;65.88;100552.47;7396843;19;1847;-42
2023/05/24 00:24:06;;;;;;;;;;;;;;;20.31;65.86;100549.09;7399570;19;1391;-42
2023/05/24 00:26:37;;;;;;;;;;;;;;;20.32;66.11;100558.84;7400756;19;1011;-42
2023/05/24 00:29:05;;;;;;;;;;;;;;;20.30;65.79;100544.72;7398244;19;1845;-42
2023/05/24 00:31:34;;;;;;;;;;;;;;;20.31;65.48;100539.19;7398357;19;1878;-42
2023/05/24 00:34:02;;;;;;;;;;;;;;;20.34;65.70;100555.00;7396619;19;1390;-43
2023/05/24 00:36:30;;;;;;;;;;;;;;;20.31;65.93;100555.28;7400420;19;962;-42
2023/05/24 00:38:58;;;;;;;;;;;;;;;20.33;65.55;100536.34;7398223;19;1562;-42
2023/05/24 00:41:27;;;;;;;;;;;;;;;20.31;65.89;100554.47;7397739;19;1845;-42
2023/05/24 00:43:58;;;;;;;;;;;;;;;20.32;65.44;100542.75;7396707;19;1446;-42
2023/05/24 00:46:28;;;;;;;;;;;;;;;20.30;65.49;100532.13;7398457;19;1719;-42
2023/05/24 00:48:57;;;;;;;;;;;;;;;20.32;66.03;100546.25;7397870;19;1717;-43
2023/05/24 00:51:26;;;;;;;;;;;;;;;20.27;65.82;100538.66;7396835;19;1746;-42
2023/05/24 00:53:54;;;;;;;;;;;;;;;20.32;65.78;100554.31;7398635;19;1465;-42
2023/05/24 00:56:22;;;;;;;;;;;;;;;20.27;65.51;100544.03;7398947;19;1118;-42
2023/05/24 00:58:53;;;;;;;;;;;;;;;20.31;66.06;100565.19;7393859;19;1896;-42
2023/05/24 01:01:29;;;;;;;;;;;;;;;20.29;65.92;100549.22;7396710;19;1858;-42
2023/05/24 01:03:58;;;;;;;;;;;;;;;20.27;66.01;100557.47;7397542;19;1459;-42
2023/05/24 01:06:27;;;;;;;;;;;;;;;20.26;65.54;100553.06;7398232;19;1667;-50
2023/05/24 01:09:08;;;;;;;;;;;;;;;20.26;65.57;100553.06;7395557;19;1414;-42
2023/05/24 01:11:44;;;;;;;;;;;;;;;20.27;65.84;100560.16;7397970;19;1739;-42
2023/05/24 01:14:19;;;;;;;;;;;;;;;20.26;65.67;100555.75;7397704;19;1896;-42
2023/05/24 01:16:55;;;;;;;;;;;;;;;20.25;65.92;100551.41;7397596;19;1678;-42
2023/05/24 01:19:43;;;;;;;;;;;;;;;20.24;65.72;100555.06;7396556;19;1434;-43
2023/05/24 01:22:19;;;;;;;;;;;;;;;20.26;65.70;100557.59;7395847;19;1851;-42
2023/05/24 01:24:54;;;;;;;;;;;;;;;20.26;65.62;100566.50;7396593;19;1950;-42
2023/05/24 01:27:25;;;;;;;;;;;;;;;20.25;66.04;100564.81;7397661;19;1043;-42
2023/05/24 01:29:54;;;;;;;;;;;;;;;20.25;65.56;100570.19;7397402;19;1907;-43
2023/05/24 01:32:23;;;;;;;;;;;;;;;20.20;65.61;100563.56;7397461;19;1856;-43
2023/05/24 01:34:51;;;;;;;;;;;;;;;20.23;65.61;100569.50;7397488;19;1399;-42
2023/05/24 01:37:19;;;;;;;;;;;;;;;20.24;65.94;100567.66;7397571;19;1725;-42
2023/05/24 01:39:48;;;;;;;;;;;;;;;20.25;65.47;100575.56;7396509;19;1990;-42
2023/05/24 01:42:22;;;;;;;;;;;;;;;20.23;65.57;100553.38;7396795;19;1851;-42
2023/05/24 01:44:59;;;;;;;;;;;;;;;20.22;65.72;100566.94;7398216;19;953;-42
2023/05/24 01:47:34;;;;;;;;;;;;;;;20.22;66.04;100572.31;7397189;19;1605;-42
2023/05/24 01:50:05;;;;;;;;;;;;;;;20.24;65.73;100562.28;7396688;19;1887;-42
2023/05/24 01:52:34;;;;;;;;;;;;;;;20.21;65.47;100557.19;7396739;19;1506;-42
2023/05/24 01:55:04;;;;;;;;;;;;;;;20.25;65.75;100567.50;7396254;19;1505;-42
2023/05/24 01:57:33;;;;;;;;;;;;;;;20.23;65.48;100564.13;7397851;19;1722;-42
2023/05/24 02:00:05;;;;;;;;;;;;;;;20.21;65.50;100566.13;7395732;19;1466;-42
2023/05/24 02:02:33;;;;;;;;;;;;;;;20.16;65.99;100572.91;7394928;19;1865;-42
2023/05/24 02:05:02;;;;;;;;;;;;;;;20.14;65.79;100569.53;7395907;19;1761;-42
2023/05/24 02:07:30;;;;;;;;;;;;;;;20.16;66.14;100571.06;7395859;19;1485;-42
2023/05/24 02:09:58;;;;;;;;;;;;;;;20.13;66.23;100579.41;7397006;19;2000;-42
2023/05/24 02:12:27;;;;;;;;;;;;;;;20.13;65.85;100574.03;7404403;19;1506;-42
2023/05/24 02:14:56;;;;;;;;;;;;;;;20.13;65.76;100582.09;7404058;19;1517;-43
2023/05/24 02:17:27;;;;;;;;;;;;;;;20.15;66.07;100568.53;7403187;19;1970;-43
2023/05/24 02:19:55;;;;;;;;;;;;;;;20.15;66.13;100572.03;7404009;19;1713;-42
2023/05/24 02:22:23;;;;;;;;;;;;;;;20.10;65.98;100576.19;7401146;19;1859;-42
2023/05/24 02:24:52;;;;;;;;;;;;;;;20.10;65.98;100577.03;7403250;19;1728;-42
2023/05/24 02:27:20;;;;;;;;;;;;;;;20.15;65.94;100566.66;7404063;19;953;-42
2023/05/24 02:29:49;;;;;;;;;;;;;;;20.12;66.18;100575.03;7402552;19;1848;-42
2023/05/24 02:32:17;;;;;;;;;;;;;;;20.11;66.37;100584.06;7403012;19;1482;-42
2023/05/24 02:34:48;;;;;;;;;;;;;;;20.04;66.24;100577.63;7402924;19;1796;-42
2023/05/24 02:37:16;;;;;;;;;;;;;;;20.06;66.16;100586.38;7403219;19;1805;-42
2023/05/24 02:39:45;;;;;;;;;;;;;;;20.09;66.27;100575.31;7399167;19;1713;-63
2023/05/24 02:42:13;;;;;;;;;;;;;;;20.09;66.07;100586.06;7399552;19;1858;-42
2023/05/24 02:44:41;;;;;;;;;;;;;;;20.01;66.34;100564.47;7401263;19;1707;-42
2023/05/24 02:47:10;;;;;;;;;;;;;;;20.10;65.81;100579.72;7403225;19;1730;-42
2023/05/24 02:49:38;;;;;;;;;;;;;;;20.08;65.77;100587.06;7402289;19;2145;-42
2023/05/24 02:52:09;;;;;;;;;;;;;;;20.12;66.02;100577.72;7402372;19;1733;-42
2023/05/24 02:54:38;;;;;;;;;;;;;;;20.07;66.19;100580.00;7403353;19;1725;-42
2023/05/24 02:57:07;;;;;;;;;;;;;;;20.12;66.15;100587.63;7403358;19;908;-42
2023/05/24 02:59:35;;;;;;;;;;;;;;;20.10;65.63;100584.25;7401441;19;1946;-42
2023/05/24 03:02:03;;;;;;;;;;;;;;;20.11;65.82;100621.66;7401271;19;1851;-43
2023/05/24 03:04:32;;;;;;;;;;;;;;;20.14;66.10;100581.09;7403495;19;1034;-42
2023/05/24 03:07:00;;;;;;;;;;;;;;;20.08;65.93;100587.06;7402376;19;1889;-42
2023/05/24 03:09:31;;;;;;;;;;;;;;;20.12;65.98;100568.84;7399998;19;1813;-42
2023/05/24 03:11:59;;;;;;;;;;;;;;;20.13;65.71;100600.88;7401597;19;1857;-42
2023/05/24 03:14:28;;;;;;;;;;;;;;;20.13;66.11;100590.13;7402143;19;1766;-42
2023/05/24 03:16:56;;;;;;;;;;;;;;;20.13;65.69;100594.66;7401176;19;1808;-42
2023/05/24 03:19:26;;;;;;;;;;;;;;;20.10;66.19;100590.44;7400930;19;1749;-42
2023/05/24 03:21:54;;;;;;;;;;;;;;;20.04;65.90;100586.50;7397881;19;1861;-42
2023/05/24 03:24:24;;;;;;;;;;;;;;;20.08;65.85;100591.59;7400422;19;1741;-42
2023/05/24 03:26:55;;;;;;;;;;;;;;;20.04;66.18;100585.69;7400737;19;1018;-42
2023/05/24 03:29:24;;;;;;;;;;;;;;;20.11;65.77;100585.91;7399962;19;1955;-42
2023/05/24 03:31:52;;;;;;;;;;;;;;;20.13;65.74;100574.03;7400942;19;1702;-42
2023/05/24 03:34:20;;;;;;;;;;;;;;;20.15;65.84;100588.16;7400768;19;1732;-42
2023/05/24 03:36:48;;;;;;;;;;;;;;;20.10;65.81;100593.13;7399820;19;1808;-43
2023/05/24 03:39:17;;;;;;;;;;;;;;;20.20;65.73;100588.56;7399198;19;1813;-42
2023/05/24 03:41:45;;;;;;;;;;;;;;;20.24;65.75;100583.75;7400173;19;1856;-42
2023/05/24 03:44:16;;;;;;;;;;;;;;;20.29;65.54;100583.31;7400394;19;1726;-42
2023/05/24 03:46:44;;;;;;;;;;;;;;;20.27;65.32;100584.31;7400204;19;1808;-42
2023/05/24 03:49:13;;;;;;;;;;;;;;;20.32;65.54;100588.38;7400844;19;1741;-43
2023/05/24 03:51:41;;;;;;;;;;;;;;;20.27;65.37;100600.41;7401012;19;1061;-42
2023/05/24 03:54:09;;;;;;;;;;;;;;;20.29;65.68;100596.72;7399105;19;1873;-42
2023/05/24 03:56:38;;;;;;;;;;;;;;;20.25;65.44;100598.84;7399295;19;1733;-42
2023/05/24 03:59:06;;;;;;;;;;;;;;;20.18;65.60;100603.97;7400172;19;1387;-42
2023/05/24 04:01:38;;;;;;;;;;;;;;;20.13;65.07;100606.25;7400630;19;1848;-42
2023/05/24 04:04:06;;;;;;;;;;;;;;;20.07;64.64;100612.22;7398219;19;1884;-43
2023/05/24 04:06:35;;;;;;;;;;;;;;;20.05;65.15;100607.00;7401034;19;1807;-42
2023/05/24 04:09:04;;;;;;;;;;;;;;;20.27;64.95;100603.09;7398680;19;1449;-42
2023/05/24 04:11:32;;;;;;;;;;;;;;;20.17;65.94;100609.50;7399564;19;1414;-42
2023/05/24 04:14:02;;;;;;;;;;;;;;;20.12;66.16;100601.88;7399114;19;1473;-43
2023/05/24 04:16:32;;;;;;;;;;;;;;;20.15;66.15;100617.69;7398630;19;1671;-42
2023/05/24 04:19:03;;;;;;;;;;;;;;;20.13;66.16;100622.34;7398484;19;1776;-42
2023/05/24 04:21:32;;;;;;;;;;;;;;;20.16;65.78;100619.41;7399419;19;1842;-42
2023/05/24 04:24:00;;;;;;;;;;;;;;;20.12;65.98;100604.56;7399058;19;1492;-42
2023/05/24 04:26:28;;;;;;;;;;;;;;;20.15;66.24;100617.69;7399802;19;968;-42
2023/05/24 04:28:57;;;;;;;;;;;;;;;19.59;66.23;100562.16;7397403;19;1588;-43
2023/05/24 04:31:28;;;;;;;;;;;;;;;20.25;66.01;100620.34;7397484;19;1748;-42
2023/05/24 04:33:57;;;;;;;;;;;;;;;20.37;65.59;100623.69;7397769;19;1372;-42
2023/05/24 04:36:30;;;;;;;;;;;;;;;20.35;65.23;100625.66;7399125;19;1839;-42
2023/05/24 04:39:01;;;;;;;;;;;;;;;20.32;65.76;100613.41;7399266;19;1792;-42
2023/05/24 04:41:30;;;;;;;;;;;;;;;20.37;65.33;100618.31;7398075;19;1838;-42
2023/05/24 04:43:59;;;;;;;;;;;;;;;20.38;65.60;100611.97;7398980;19;1730;-43
2023/05/24 04:46:27;;;;;;;;;;;;;;;20.35;65.44;100625.66;7399268;19;1717;-43
2023/05/24 04:48:56;;;;;;;;;;;;;;;20.43;65.39;100623.97;7399447;19;1106;-42
2023/05/24 04:51:24;;;;;;;;;;;;;;;20.47;65.49;100619.09;7398887;19;1848;-42
2023/05/24 04:53:55;;;;;;;;;;;;;;;20.47;65.06;100621.78;7398483;19;1546;-43
2023/05/24 04:56:23;;;;;;;;;;;;;;;20.45;65.08;100610.34;7398131;19;1525;-42
2023/05/24 04:58:52;;;;;;;;;;;;;;;20.50;65.02;100634.94;7399893;19;966;-43
2023/05/24 05:01:20;;;;;;;;;;;;;;;20.41;65.25;100627.75;7398005;19;1855;-43
2023/05/24 05:03:48;;;;;;;;;;;;;;;20.32;65.80;100628.66;7397013;19;1509;-42
2023/05/24 05:06:17;;;;;;;;;;;;;;;20.31;65.84;100624.28;7398007;19;1486;-42
2023/05/24 05:08:46;;;;;;;;;;;;;;;20.34;66.03;100629.38;7396417;19;1758;-42
2023/05/24 05:11:17;;;;;;;;;;;;;;;20.24;66.11;100635.59;7396761;19;1474;-42
2023/05/24 05:13:48;;;;;;;;;;;;;;;20.21;66.51;100630.56;7394760;19;1478;-43
2023/05/24 05:16:17;;;;;;;;;;;;;;;20.34;65.76;100630.22;7396532;19;1405;-42
2023/05/24 05:18:45;;;;;;;;;;;;;;;20.43;65.41;100631.16;7397946;19;1726;-43
2023/05/24 05:21:13;;;;;;;;;;;;;;;20.36;66.08;100625.53;7397581;19;1425;-42
2023/05/24 05:23:42;;;;;;;;;;;;;;;20.37;65.78;100627.25;7395762;19;1843;-42
2023/05/24 05:26:10;;;;;;;;;;;;;;;20.32;66.11;100642.09;7398852;19;1028;-43
2023/05/24 05:28:41;;;;;;;;;;;;;;;20.35;65.87;100637.28;7394569;19;1424;-43
2023/05/24 05:31:09;;;;;;;;;;;;;;;20.41;65.86;100636.69;7397201;19;1484;-43
2023/05/24 05:33:37;;;;;;;;;;;;;;;20.40;66.01;100640.34;7397628;19;1730;-43
2023/05/24 05:36:06;;;;;;;;;;;;;;;20.27;66.48;100639.84;7397769;19;1054;-42
2023/05/24 05:38:34;;;;;;;;;;;;;;;20.14;66.50;100645.53;7396011;19;1467;-42
2023/05/24 05:41:03;;;;;;;;;;;;;;;20.19;66.90;100648.66;7395916;19;1390;-42
2023/05/24 05:43:31;;;;;;;;;;;;;;;20.02;66.84;100641.34;7394481;19;1855;-42
2023/05/24 05:46:02;;;;;;;;;;;;;;;20.30;66.23;100657.50;7400910;19;1374;-42
2023/05/24 05:48:30;;;;;;;;;;;;;;;20.38;66.25;100660.31;7404402;19;1844;-42
2023/05/24 05:50:58;;;;;;;;;;;;;;;20.44;66.00;100667.78;7404773;19;1707;-43
2023/05/24 05:53:26;;;;;;;;;;;;;;;20.49;66.04;100653.88;7403278;19;1948;-42
2023/05/24 05:55:55;;;;;;;;;;;;;;;20.57;65.35;100660.22;7405717;19;943;-43
2023/05/24 05:58:23;;;;;;;;;;;;;;;20.45;65.85;100658.69;7401359;19;1868;-43
2023/05/24 06:00:51;;;;;;;;;;;;;;;20.46;65.98;100663.09;7405027;19;1030;-42
2023/05/24 06:03:22;;;;;;;;;;;;;;;20.40;66.32;100675.28;7399947;19;1861;-42
2023/05/24 06:05:50;;;;;;;;;;;;;;;20.34;66.59;100666.97;7402994;19;1398;-42
2023/05/24 06:08:19;;;;;;;;;;;;;;;20.39;66.00;100659.28;7401636;19;1714;-42
2023/05/24 06:10:47;;;;;;;;;;;;;;;20.30;66.66;100673.63;7404296;19;1402;-42
2023/05/24 06:13:15;;;;;;;;;;;;;;;20.24;66.97;100661.63;7400626;19;1387;-42
2023/05/24 06:15:44;;;;;;;;;;;;;;;20.47;66.23;100680.88;7403108;19;1422;-43
2023/05/24 06:18:12;;;;;;;;;;;;;;;20.46;66.01;100673.84;7404302;19;1659;-43
2023/05/24 06:20:43;;;;;;;;;;;;;;;20.34;66.59;100667.81;7404403;19;1026;-43
2023/05/24 06:23:11;;;;;;;;;;;;;;;20.28;66.54;100671.06;7402803;19;1867;-42
2023/05/24 06:25:42;;;;;;;;;;;;;;;20.39;66.35;100670.91;7403961;19;1785;-43
2023/05/24 06:28:10;;;;;;;;;;;;;;;20.37;66.64;100661.28;7399973;19;1550;-42
2023/05/24 06:30:39;;;;;;;;;;;;;;;20.35;66.95;100674.00;7403446;19;1501;-43
2023/05/24 06:33:07;;;;;;;;;;;;;;;20.43;66.60;100660.69;7403799;19;1737;-43
2023/05/24 06:35:35;;;;;;;;;;;;;;;20.31;67.04;100660.03;7404498;19;1848;-42
2023/05/24 06:38:06;;;;;;;;;;;;;;;20.45;66.21;100670.31;7398382;19;1588;-42
2023/05/24 06:40:34;;;;;;;;;;;;;;;20.41;66.78;100662.69;7403620;19;1403;-43
2023/05/24 06:43:03;;;;;;;;;;;;;;;20.43;66.25;100661.56;7401949;19;1843;-43
2023/05/24 06:45:31;;;;;;;;;;;;;;;20.36;66.38;100664.97;7402367;19;1469;-42
2023/05/24 06:47:59;;;;;;;;;;;;;;;20.46;66.33;100668.47;7403129;19;1411;-43
2023/05/24 06:50:28;;;;;;;;;;;;;;;20.45;66.59;100654.19;7403098;19;1738;-42
2023/05/24 06:52:56;;;;;;;;;;;;;;;20.20;66.96;100655.69;7402799;19;1109;-43
2023/05/24 06:55:27;;;;;;;;;;;;;;;20.22;67.39;100659.06;7402262;19;1604;-43
2023/05/24 06:57:55;;;;;;;;;;;;;;;20.19;67.56;100658.50;7396773;19;1869;-43
2023/05/24 07:00:24;;;;;;;;;;;;;;;20.30;66.73;100663.72;7404046;19;974;-42
2023/05/24 07:02:52;;;;;;;;;;;;;;;20.47;66.50;100662.09;7397867;19;1919;-43
2023/05/24 07:05:21;;;;;;;;;;;;;;;20.56;66.56;100669.28;7402566;19;1792;-43
2023/05/24 07:07:49;;;;;;;;;;;;;;;20.33;66.98;100660.72;7400801;19;1426;-42
2023/05/24 07:10:17;;;;;;;;;;;;;;;20.19;67.31;100664.75;7402475;19;1679;-43
2023/05/24 07:12:48;;;;;;;;;;;;;;;20.14;67.42;100656.28;7401217;19;1386;-44
2023/05/24 07:15:16;;;;;;;;;;;;;;;20.19;67.36;100659.38;7403110;19;1127;-43
2023/05/24 07:17:45;;;;;;;;;;;;;;;20.16;67.70;100648.94;7402307;19;1824;-42
2023/05/24 07:20:13;;;;;;;;;;;;;;;20.19;67.80;100664.75;7401831;19;1794;-43
2023/05/24 07:22:42;;;;;;;;;;;;;;;20.12;67.79;100647.53;7400434;19;1926;-43
2023/05/24 07:25:11;;;;;;;;;;;;;;;20.20;67.83;100652.16;7402260;19;1722;-43
2023/05/24 07:27:39;;;;;;;;;;;;;;;20.60;66.18;100659.94;7402366;19;1083;-42
2023/05/24 07:30:11;;;;;;;;;;;;;;;20.47;66.88;100659.41;7402027;19;1900;-43
2023/05/24 07:32:39;;;;;;;;;;;;;;;20.46;66.79;100655.88;7400527;19;1613;-43
2023/05/24 07:35:08;;;;;;;;;;;;;;;20.51;66.79;100658.09;7401288;19;1781;-42
2023/05/24 07:37:37;;;;;;;;;;;;;;;20.63;66.34;100659.66;7401782;19;1726;-43
2023/05/24 07:40:07;;;;;;;;;;;;;;;20.61;66.46;100663.47;7400408;19;1485;-43
2023/05/24 07:42:35;;;;;;;;;;;;;;;20.71;65.93;100650.00;7400733;19;1835;-43
2023/05/24 07:45:04;;;;;;;;;;;;;;;20.78;65.51;100654.63;7402372;19;982;-42
2023/05/24 07:47:35;;;;;;;;;;;;;;;20.55;66.52;100647.91;7402652;19;1146;-42
2023/05/24 07:50:03;;;;;;;;;;;;;;;20.49;66.20;100662.78;7400823;19;1450;-42
2023/05/24 07:52:31;;;;;;;;;;;;;;;20.23;67.37;100654.53;7400250;19;1478;-42
2023/05/24 07:55:00;;;;;;;;;;;;;;;20.59;66.51;100666.34;7399694;19;1462;-42
2023/05/24 07:57:28;;;;;;;;;;;;;;;20.54;66.10;100675.78;7401366;19;1038;-42
2023/05/24 07:59:57;;;;;;;;;;;;;;;20.58;66.13;100677.19;7400279;19;1517;-43
2023/05/24 08:02:26;;;;;;;;;;;;;;;20.43;66.48;100660.69;7396538;19;1869;-42
2023/05/24 08:04:57;;;;;;;;;;;;;;;20.71;66.11;100653.56;7400191;19;1741;-43
2023/05/24 08:07:25;;;;;;;;;;;;;;;20.77;65.80;100662.81;7399022;19;1679;-42
2023/05/24 08:09:54;;;;;;;;;;;;;;;20.77;66.12;100668.19;7399251;19;1067;-43
2023/05/24 08:12:22;;;;;;;;;;;;;;;20.77;65.50;100663.69;7400482;19;1852;-42
2023/05/24 08:14:51;;;;;;;;;;;;;;;20.48;66.65;100669.16;7399247;19;1594;-42
2023/05/24 08:17:19;;;;;;;;;;;;;;;20.32;66.87;100663.59;7399140;19;1907;-42
2023/05/24 08:19:48;;;;;;;;;;;;;;;20.29;67.07;100661.19;7399808;19;1450;-42
2023/05/24 08:22:18;;;;;;;;;;;;;;;20.30;67.28;100661.03;7399142;19;1799;-43
2023/05/24 08:24:47;;;;;;;;;;;;;;;20.25;67.13;100665.97;7396866;19;1847;-43
2023/05/24 08:27:15;;;;;;;;;;;;;;;20.35;67.31;100668.66;7399629;19;1066;-43
2023/05/24 08:29:44;;;;;;;;;;;;;;;20.31;67.41;100661.88;7399158;19;1939;-42
2023/05/24 08:32:12;;;;;;;;;;;;;;;20.49;66.77;100661.94;7399744;19;1812;-43
2023/05/24 08:34:40;;;;;;;;;;;;;;;20.42;66.83;100675.13;7399056;19;1736;-42
2023/05/24 08:37:09;;;;;;;;;;;;;;;20.49;66.60;100665.47;7398915;19;1339;-43
2023/05/24 08:39:40;;;;;;;;;;;;;;;20.36;66.87;100675.72;7400244;19;1034;-43
2023/05/24 08:42:08;;;;;;;;;;;;;;;20.35;67.32;100663.28;7399476;19;1927;-43
2023/05/24 08:44:42;;;;;;;;;;;;;;;20.37;66.83;100674.72;7396928;19;1863;-43
2023/05/24 08:47:11;;;;;;;;;;;;;;;20.42;67.32;100670.59;7398229;19;1458;-42
2023/05/24 08:49:40;;;;;;;;;;;;;;;20.66;66.06;100675.47;7399134;19;1714;-42
2023/05/24 08:52:10;;;;;;;;;;;;;;;20.55;66.77;100674.78;7397027;19;1765;-42
2023/05/24 08:54:42;;;;;;;;;;;;;;;20.45;66.83;100659.56;7396724;19;1729;-43
2023/05/24 08:57:10;;;;;;;;;;;;;;;20.26;67.13;100663.16;7399834;19;1039;-43
2023/05/24 08:59:39;;;;;;;;;;;;;;;20.19;67.31;100675.50;7398364;19;2228;-42
2023/05/24 09:02:07;;;;;;;;;;;;;;;20.30;67.56;100663.72;7399210;19;1828;-42
2023/05/24 09:04:37;;;;;;;;;;;;;;;20.44;67.07;100676.66;7397718;19;1855;-42
2023/05/24 09:07:06;;;;;;;;;;;;;;;20.39;67.42;100670.91;7398385;19;1525;-43
2023/05/24 09:09:36;;;;;;;;;;;;;;;20.41;66.91;100657.31;7396817;19;1856;-42
2023/05/24 09:12:07;;;;;;;;;;;;;;;20.48;66.91;100662.97;7397468;19;1529;-42
2023/05/24 09:14:35;;;;;;;;;;;;;;;20.51;66.95;100668.84;7398358;19;1392;-43
2023/05/24 09:17:04;;;;;;;;;;;;;;;20.60;66.61;100664.47;7398359;19;1665;-42
2023/05/24 09:19:32;;;;;;;;;;;;;;;20.63;66.34;100667.72;7396318;19;1749;-42
2023/05/24 09:22:01;;;;;;;;;;;;;;;20.66;66.51;100672.78;7396604;19;1641;-42
2023/05/24 09:24:29;;;;;;;;;;;;;;;20.70;66.15;100672.50;7394933;19;1849;-43
2023/05/24 09:27:06;;;;;;;;;;;;;;;20.69;66.24;100681.53;7396738;19;1038;-42
2023/05/24 09:29:40;;;;;;;;;;;;;;;20.62;66.28;100671.38;7397576;19;1950;-43
2023/05/24 09:32:09;;;;;;;;;;;;;;;20.43;67.25;100668.75;7397852;19;1691;-42
2023/05/24 09:34:41;;;;;;;;;;;;;;;20.50;66.63;100666.34;7396540;19;1328;-42
2023/05/24 09:37:12;;;;;;;;;;;;;;;20.63;66.22;100672.22;7397178;19;1414;-43
2023/05/24 09:39:41;;;;;;;;;;;;;;;20.71;66.30;100676.88;7398508;19;1020;-43
2023/05/24 09:42:09;;;;;;;;;;;;;;;20.83;65.69;100668.47;7397792;19;1938;-42
2023/05/24 09:44:41;;;;;;;;;;;;;;;20.78;65.85;100664.53;7395412;19;1843;-43
2023/05/24 09:47:11;;;;;;;;;;;;;;;20.77;66.16;100674.44;7397131;19;1949;-42
2023/05/24 09:49:39;;;;;;;;;;;;;;;20.47;66.91;100656.72;7397200;19;1460;-42
2023/05/24 09:52:08;;;;;;;;;;;;;;;20.57;66.52;100657.53;7396343;19;1426;-42
2023/05/24 09:54:39;;;;;;;;;;;;;;;20.66;66.13;100651.28;7396863;19;1670;-42
2023/05/24 09:57:07;;;;;;;;;;;;;;;20.61;66.41;100664.34;7397649;19;1006;-42
2023/05/24 09:59:35;;;;;;;;;;;;;;;20.56;66.29;100655.84;7396695;19;1450;-42
2023/05/24 10:02:13;;;;;;;;;;;;;;;20.60;66.38;100651.88;7398037;19;968;-43
2023/05/24 10:04:41;;;;;;;;;;;;;;;20.61;66.54;100658.97;7395520;19;1845;-43
2023/05/24 10:07:11;;;;;;;;;;;;;;;20.50;66.55;100666.34;7396965;19;1885;-42
2023/05/24 10:09:39;;;;;;;;;;;;;;;20.49;66.90;100649.34;7394887;19;1904;-42
2023/05/24 10:12:08;;;;;;;;;;;;;;;20.52;66.73;100653.59;7395970;19;1948;-43
2023/05/24 10:14:38;;;;;;;;;;;;;;;20.48;66.91;100649.53;7397203;19;1378;-43
2023/05/24 10:17:07;;;;;;;;;;;;;;;20.46;66.67;100655.88;7396578;19;1423;-42
2023/05/24 10:19:40;;;;;;;;;;;;;;;20.35;67.27;100639.09;7396589;19;1805;-42
2023/05/24 10:22:09;;;;;;;;;;;;;;;20.63;66.62;100640.84;7395694;19;1305;-42
2023/05/24 10:24:42;;;;;;;;;;;;;;;20.74;66.22;100637.09;7393867;19;1854;-42
2023/05/24 10:27:14;;;;;;;;;;;;;;;20.47;67.00;100643.28;7395870;19;952;-43
2023/05/24 10:29:50;;;;;;;;;;;;;;;20.51;67.18;100651.91;7395570;19;1955;-44
2023/05/24 10:32:19;;;;;;;;;;;;;;;20.85;66.02;100644.97;7401736;19;1537;-42
2023/05/24 10:34:52;;;;;;;;;;;;;;;20.76;65.83;100634.28;7403274;19;1336;-43
2023/05/24 10:37:21;;;;;;;;;;;;;;;20.49;66.49;100635.91;7402801;19;1411;-43
2023/05/24 10:39:49;;;;;;;;;;;;;;;20.44;66.82;100636.38;7402762;19;1438;-42
2023/05/24 10:42:18;;;;;;;;;;;;;;;20.53;66.77;100631.97;7403487;19;991;-43
2023/05/24 10:44:46;;;;;;;;;;;;;;;20.48;66.54;100619.97;7401756;19;1899;-43
2023/05/24 10:47:15;;;;;;;;;;;;;;;20.41;67.17;100617.03;7402501;19;1798;-42
2023/05/24 10:49:53;;;;;;;;;;;;;;;20.78;65.73;100616.16;7402271;19;1861;-43
2023/05/24 10:52:21;;;;;;;;;;;;;;;20.56;66.84;100628.97;7402595;19;1462;-42
2023/05/24 10:55:06;;;;;;;;;;;;;;;20.55;66.75;100613.00;7402525;19;1724;-43
2023/05/24 10:57:35;;;;;;;;;;;;;;;20.59;66.45;100607.22;7404373;19;1026;-43
2023/05/24 11:00:27;;;;;;;;;;;;;;;20.62;66.54;100601.53;7403196;19;1514;-42
2023/05/24 11:03:01;;;;;;;;;;;;;;;20.61;66.68;100593.63;7399777;19;1593;-43
2023/05/24 11:05:36;;;;;;;;;;;;;;;20.63;66.71;100603.25;7400285;19;1860;-42
2023/05/24 11:08:08;;;;;;;;;;;;;;;20.51;66.68;100598.16;7401141;19;1372;-42
2023/05/24 11:10:38;;;;;;;;;;;;;;;20.62;66.36;100589.94;7402459;19;1520;-43
2023/05/24 11:13:09;;;;;;;;;;;;;;;20.31;67.65;100592.88;7402029;19;1817;-42
2023/05/24 11:15:38;;;;;;;;;;;;;;;20.30;67.79;100591.22;7402391;19;1678;-43
2023/05/24 11:18:16;;;;;;;;;;;;;;;20.52;66.55;100586.44;7402604;19;1782;-43
2023/05/24 11:20:47;;;;;;;;;;;;;;;20.60;66.92;100582.03;7402569;19;1065;-43
2023/05/24 11:23:16;;;;;;;;;;;;;;;20.83;65.72;100593.22;7402915;19;957;-43
2023/05/24 11:25:45;;;;;;;;;;;;;;;20.80;66.24;100592.66;7399376;19;1860;-43
2023/05/24 11:28:13;;;;;;;;;;;;;;;20.81;65.62;100579.09;7398209;19;1454;-43
2023/05/24 11:30:42;;;;;;;;;;;;;;;20.73;65.88;100570.06;7400800;19;1701;-43
2023/05/24 11:33:17;;;;;;;;;;;;;;;20.54;66.64;100571.88;7401403;19;1573;-43
2023/05/24 11:35:49;;;;;;;;;;;;;;;20.61;66.74;100578.38;7401577;19;961;-42
2023/05/24 11:38:18;;;;;;;;;;;;;;;20.61;66.66;100566.75;7399087;19;1789;-44
2023/05/24 11:40:46;;;;;;;;;;;;;;;20.75;66.25;100578.81;7398167;19;1581;-42
2023/05/24 11:43:16;;;;;;;;;;;;;;;20.71;66.32;100578.31;7400040;19;1720;-42
2023/05/24 11:45:47;;;;;;;;;;;;;;;20.61;66.67;100562.25;7398477;19;1833;-43
2023/05/24 11:48:15;;;;;;;;;;;;;;;20.70;66.23;100571.22;7400973;19;1744;-43
2023/05/24 11:50:45;;;;;;;;;;;;;;;20.66;66.46;100554.56;7401461;19;1796;-42
2023/05/24 11:53:16;;;;;;;;;;;;;;;20.79;66.01;100564.09;7400283;19;1346;-43
2023/05/24 11:55:45;;;;;;;;;;;;;;;20.73;65.96;100536.00;7401541;19;1106;-43
2023/05/24 11:58:16;;;;;;;;;;;;;;;20.70;66.24;100544.38;7396815;19;1635;-43
2023/05/24 12:00:44;;;;;;;;;;;;;;;20.36;67.24;100558.38;7400602;19;1873;-43
2023/05/24 12:03:12;;;;;;;;;;;;;;;20.55;66.62;100540.47;7397778;19;1513;-42
2023/05/24 12:05:41;;;;;;;;;;;;;;;20.49;66.95;100541.91;7396879;19;1871;-42
2023/05/24 12:08:11;;;;;;;;;;;;;;;20.57;66.74;100533.97;7399095;19;1512;-43
2023/05/24 12:10:42;;;;;;;;;;;;;;;20.43;67.04;100546.06;7399817;19;1753;-62
2023/05/24 12:13:20;;;;;;;;;;;;;;;20.22;67.32;100538.25;7399724;19;1483;-42
2023/05/24 12:15:51;;;;;;;;;;;;;;;20.16;67.99;100540.69;7399581;19;1360;-43
2023/05/24 12:18:20;;;;;;;;;;;;;;;20.13;67.72;100527.56;7399666;19;1725;-43
2023/05/24 12:20:48;;;;;;;;;;;;;;;20.15;67.71;100542.50;7400178;19;1731;-43
2023/05/24 12:23:17;;;;;;;;;;;;;;;20.13;68.13;100528.41;7400436;19;1026;-43
2023/05/24 12:25:48;;;;;;;;;;;;;;;20.15;68.29;100537.13;7398323;19;1855;-43
2023/05/24 12:28:17;;;;;;;;;;;;;;;20.12;67.87;100518.66;7396311;19;1919;-42
2023/05/24 12:30:46;;;;;;;;;;;;;;;20.10;68.05;100515.28;7398802;19;1324;-42
2023/05/24 12:33:14;;;;;;;;;;;;;;;20.11;67.89;100514.28;7399598;19;1462;-43
2023/05/24 12:35:43;;;;;;;;;;;;;;;20.22;67.54;100503.34;7399950;19;1047;-43
2023/05/24 12:38:11;;;;;;;;;;;;;;;20.54;66.94;100512.75;7396919;19;1904;-43
2023/05/24 12:40:43;;;;;;;;;;;;;;;20.31;67.46;100516.88;7397475;19;1415;-42
2023/05/24 12:43:15;;;;;;;;;;;;;;;20.25;67.88;100508.44;7398715;19;1427;-43
2023/05/24 12:45:43;;;;;;;;;;;;;;;20.25;68.12;100512.94;7397344;19;1843;-42
2023/05/24 12:48:11;;;;;;;;;;;;;;;20.29;67.64;100505.44;7397985;19;1470;-43
2023/05/24 12:50:40;;;;;;;;;;;;;;;20.38;67.65;100512.59;7399524;19;1462;-43
2023/05/24 12:53:08;;;;;;;;;;;;;;;20.65;66.99;100504.53;7399478;19;976;-42
2023/05/24 12:55:36;;;;;;;;;;;;;;;20.68;66.47;100507.91;7397104;19;1019;-42
2023/05/24 12:58:06;;;;;;;;;;;;;;;20.61;66.63;100513.03;7395052;19;1557;-42
2023/05/24 13:00:38;;;;;;;;;;;;;;;20.72;66.14;100520.03;7399570;19;1078;-43